sensor_id;sensor_type;location;lat;lon;timestamp;pressure;altitude;pressure_sealevel;temperature;humidity
36328;BME280;22354;50.012;8.264;2022-07-10T00:00:58;101443.25;;;17.20;100.00
36328;BME280;22354;50.012;8.264;2022-07-10T00:03:23;101446.28;;;17.17;100.00
36328;BME280;22354;50.012;8.264;2022-07-10T00:05:48;101436.66;;;17.06;100.00
36328;BME280;22354;50.012;8.264;2022-07-10T00:08:14;101430.38;;;17.05;100.00
36328;BME280;22354;50.012;8.264;2022-07-10T00:10:39;101436.50;;;16.99;100.00
36328;BME280;22354;50.012;8.264;2022-07-10T00:13:05;101430.56;;;17.04;100.00
36328;BME280;22354;50.012;8.264;2022-07-10T00:15:30;101442.59;;;17.09;100.00
36328;BME280;22354;50.012;8.264;2022-07-10T00:17:57;101443.25;;;17.12;100.00
36328;BME280;22354;50.012;8.264;2022-07-10T00:20:22;101454.06;;;17.12;100.00
36328;BME280;22354;50.012;8.264;2022-07-10T00:22:47;101451.72;;;17.00;100.00
36328;BME280;22354;50.012;8.264;2022-07-10T00:25:13;101452.56;;;17.01;100.00
36328;BME280;22354;50.012;8.264;2022-07-10T00:27:39;101455.44;;;16.91;100.00
36328;BME280;22354;50.012;8.264;2022-07-10T00:30:07;101444.28;;;16.86;100.00
36328;BME280;22354;50.012;8.264;2022-07-10T00:32:32;101448.19;;;16.84;100.00
36328;BME280;22354;50.012;8.264;2022-07-10T00:34:57;101450.03;;;16.75;100.00
36328;BME280;22354;50.012;8.264;2022-07-10T00:37:23;101455.28;;;16.68;100.00
36328;BME280;22354;50.012;8.264;2022-07-10T00:39:49;101453.91;;;16.56;100.00
36328;BME280;22354;50.012;8.264;2022-07-10T00:42:14;101450.66;;;16.61;100.00
36328;BME280;22354;50.012;8.264;2022-07-10T00:44:41;101445.25;;;16.61;100.00
36328;BME280;22354;50.012;8.264;2022-07-10T00:47:07;101453.34;;;16.52;100.00
36328;BME280;22354;50.012;8.264;2022-07-10T00:49:34;101455.72;;;16.39;100.00
36328;BME280;22354;50.012;8.264;2022-07-10T00:52:02;101459.25;;;16.40;100.00
36328;BME280;22354;50.012;8.264;2022-07-10T00:54:29;101458.06;;;16.34;100.00
36328;BME280;22354;50.012;8.264;2022-07-10T00:56:56;101455.03;;;16.37;100.00
36328;BME280;22354;50.012;8.264;2022-07-10T00:59:22;101460.44;;;16.37;100.00
36328;BME280;22354;50.012;8.264;2022-07-10T01:01:49;101460.97;;;16.41;100.00
36328;BME280;22354;50.012;8.264;2022-07-10T01:04:15;101458.06;;;16.34;100.00
36328;BME280;22354;50.012;8.264;2022-07-10T01:06:40;101450.47;;;16.38;100.00
36328;BME280;22354;50.012;8.264;2022-07-10T01:09:06;101453.69;;;16.33;100.00
36328;BME280;22354;50.012;8.264;2022-07-10T01:11:33;101452.34;;;16.29;100.00
36328;BME280;22354;50.012;8.264;2022-07-10T01:14:00;101455.97;;;16.12;100.00
36328;BME280;22354;50.012;8.264;2022-07-10T01:16:26;101456.50;;;16.07;100.00
36328;BME280;22354;50.012;8.264;2022-07-10T01:18:51;101454.28;;;16.11;100.00
36328;BME280;22354;50.012;8.264;2022-07-10T01:21:27;101452.22;;;15.97;100.00
36328;BME280;22354;50.012;8.264;2022-07-10T01:23:54;101451.50;;;15.86;100.00
36328;BME280;22354;50.012;8.264;2022-07-10T01:26:19;101457.78;;;15.95;100.00
36328;BME280;22354;50.012;8.264;2022-07-10T01:28:48;101459.81;;;15.93;100.00
36328;BME280;22354;50.012;8.264;2022-07-10T01:31:14;101460.72;;;16.02;100.00
36328;BME280;22354;50.012;8.264;2022-07-10T01:33:40;101447.50;;;15.90;100.00
36328;BME280;22354;50.012;8.264;2022-07-10T01:36:05;101445.72;;;15.73;100.00
36328;BME280;22354;50.012;8.264;2022-07-10T01:38:32;101444.75;;;15.82;100.00
36328;BME280;22354;50.012;8.264;2022-07-10T01:40:57;101454.53;;;15.83;100.00
36328;BME280;22354;50.012;8.264;2022-07-10T01:43:22;101460.22;;;15.72;100.00
36328;BME280;22354;50.012;8.264;2022-07-10T01:45:47;101453.69;;;15.83;100.00
36328;BME280;22354;50.012;8.264;2022-07-10T01:48:14;101459.88;;;15.67;100.00
36328;BME280;22354;50.012;8.264;2022-07-10T01:50:39;101466.63;;;15.71;100.00
36328;BME280;22354;50.012;8.264;2022-07-10T01:53:05;101454.81;;;15.72;100.00
36328;BME280;22354;50.012;8.264;2022-07-10T01:55:31;101466.63;;;15.63;100.00
36328;BME280;22354;50.012;8.264;2022-07-10T01:57:56;101467.22;;;15.57;100.00
36328;BME280;22354;50.012;8.264;2022-07-10T02:00:22;101457.66;;;15.62;100.00
36328;BME280;22354;50.012;8.264;2022-07-10T02:02:47;101461.81;;;15.57;100.00
36328;BME280;22354;50.012;8.264;2022-07-10T02:05:32;101460.66;;;15.59;100.00
36328;BME280;22354;50.012;8.264;2022-07-10T02:07:57;101464.50;;;15.57;100.00
36328;BME280;22354;50.012;8.264;2022-07-10T02:10:23;101469.75;;;15.58;100.00
36328;BME280;22354;50.012;8.264;2022-07-10T02:12:48;101465.69;;;15.54;100.00
36328;BME280;22354;50.012;8.264;2022-07-10T02:15:13;101477.97;;;15.49;100.00
36328;BME280;22354;50.012;8.264;2022-07-10T02:17:39;101475.59;;;15.46;100.00
36328;BME280;22354;50.012;8.264;2022-07-10T02:20:04;101470.19;;;15.46;100.00
36328;BME280;22354;50.012;8.264;2022-07-10T02:22:30;101465.63;;;15.46;100.00
36328;BME280;22354;50.012;8.264;2022-07-10T02:24:55;101466.44;;;15.39;100.00
36328;BME280;22354;50.012;8.264;2022-07-10T02:27:20;101462.75;;;15.40;100.00
36328;BME280;22354;50.012;8.264;2022-07-10T02:29:46;101458.13;;;15.32;100.00
36328;BME280;22354;50.012;8.264;2022-07-10T02:32:11;101460.72;;;15.42;100.00
36328;BME280;22354;50.012;8.264;2022-07-10T02:34:36;101475.81;;;15.26;100.00
36328;BME280;22354;50.012;8.264;2022-07-10T02:37:01;101468.75;;;15.33;100.00
36328;BME280;22354;50.012;8.264;2022-07-10T02:39:27;101467.31;;;15.21;100.00
36328;BME280;22354;50.012;8.264;2022-07-10T02:41:52;101462.47;;;15.25;100.00
36328;BME280;22354;50.012;8.264;2022-07-10T02:44:17;101472.56;;;15.23;100.00
36328;BME280;22354;50.012;8.264;2022-07-10T02:46:42;101474.06;;;15.17;100.00
36328;BME280;22354;50.012;8.264;2022-07-10T02:49:08;101463.25;;;15.17;100.00
36328;BME280;22354;50.012;8.264;2022-07-10T02:51:33;101465.59;;;15.12;100.00
36328;BME280;22354;50.012;8.264;2022-07-10T02:53:58;101460.13;;;15.04;100.00
36328;BME280;22354;50.012;8.264;2022-07-10T02:56:24;101458.97;;;15.07;100.00
36328;BME280;22354;50.012;8.264;2022-07-10T02:58:49;101460.22;;;14.94;100.00
36328;BME280;22354;50.012;8.264;2022-07-10T03:01:14;101467.88;;;14.99;100.00
36328;BME280;22354;50.012;8.264;2022-07-10T03:03:39;101465.63;;;14.94;100.00
36328;BME280;22354;50.012;8.264;2022-07-10T03:06:06;101464.44;;;14.97;100.00
36328;BME280;22354;50.012;8.264;2022-07-10T03:08:31;101461.38;;;14.92;100.00
36328;BME280;22354;50.012;8.264;2022-07-10T03:10:56;101471.25;;;15.01;100.00
36328;BME280;22354;50.012;8.264;2022-07-10T03:13:21;101465.09;;;14.91;100.00
36328;BME280;22354;50.012;8.264;2022-07-10T03:15:47;101468.16;;;14.96;100.00
36328;BME280;22354;50.012;8.264;2022-07-10T03:18:12;101469.56;;;15.00;100.00
36328;BME280;22354;50.012;8.264;2022-07-10T03:20:37;101469.97;;;14.87;100.00
36328;BME280;22354;50.012;8.264;2022-07-10T03:23:02;101465.94;;;14.91;100.00
36328;BME280;22354;50.012;8.264;2022-07-10T03:25:28;101476.81;;;14.82;100.00
36328;BME280;22354;50.012;8.264;2022-07-10T03:27:53;101477.56;;;14.92;100.00
36328;BME280;22354;50.012;8.264;2022-07-10T03:30:18;101478.75;;;14.71;100.00
36328;BME280;22354;50.012;8.264;2022-07-10T03:32:45;101483.59;;;14.68;100.00
36328;BME280;22354;50.012;8.264;2022-07-10T03:35:10;101479.72;;;14.70;100.00
36328;BME280;22354;50.012;8.264;2022-07-10T03:37:35;101489.63;;;14.62;100.00
36328;BME280;22354;50.012;8.264;2022-07-10T03:40:00;101482.69;;;14.59;100.00
36328;BME280;22354;50.012;8.264;2022-07-10T03:42:26;101488.22;;;14.58;100.00
36328;BME280;22354;50.012;8.264;2022-07-10T03:44:51;101492.69;;;14.67;100.00
36328;BME280;22354;50.012;8.264;2022-07-10T03:47:16;101497.94;;;14.68;100.00
36328;BME280;22354;50.012;8.264;2022-07-10T03:49:42;101495.22;;;14.68;100.00
36328;BME280;22354;50.012;8.264;2022-07-10T03:52:07;101498.25;;;14.65;100.00
36328;BME280;22354;50.012;8.264;2022-07-10T03:54:33;101500.84;;;14.57;100.00
36328;BME280;22354;50.012;8.264;2022-07-10T03:56:58;101505.22;;;14.58;100.00
36328;BME280;22354;50.012;8.264;2022-07-10T03:59:42;101507.81;;;14.60;100.00
36328;BME280;22354;50.012;8.264;2022-07-10T04:02:08;101500.00;;;14.57;100.00
36328;BME280;22354;50.012;8.264;2022-07-10T04:04:33;101493.22;;;14.70;100.00
36328;BME280;22354;50.012;8.264;2022-07-10T04:06:59;101498.50;;;14.72;100.00
36328;BME280;22354;50.012;8.264;2022-07-10T04:09:24;101494.63;;;14.74;100.00
36328;BME280;22354;50.012;8.264;2022-07-10T04:11:50;101496.47;;;14.56;100.00
36328;BME280;22354;50.012;8.264;2022-07-10T04:14:15;101502.94;;;14.63;100.00
36328;BME280;22354;50.012;8.264;2022-07-10T04:16:40;101500.41;;;14.80;100.00
36328;BME280;22354;50.012;8.264;2022-07-10T04:19:05;101498.53;;;14.80;100.00
36328;BME280;22354;50.012;8.264;2022-07-10T04:21:31;101503.94;;;14.62;100.00
36328;BME280;22354;50.012;8.264;2022-07-10T04:23:56;101505.47;;;14.65;100.00
36328;BME280;22354;50.012;8.264;2022-07-10T04:26:21;101505.66;;;14.63;100.00
36328;BME280;22354;50.012;8.264;2022-07-10T04:28:47;101513.72;;;14.63;100.00
36328;BME280;22354;50.012;8.264;2022-07-10T04:31:12;101511.88;;;14.82;100.00
36328;BME280;22354;50.012;8.264;2022-07-10T04:33:37;101514.09;;;14.68;100.00
36328;BME280;22354;50.012;8.264;2022-07-10T04:36:03;101512.41;;;14.67;100.00
36328;BME280;22354;50.012;8.264;2022-07-10T04:38:28;101519.81;;;14.65;100.00
36328;BME280;22354;50.012;8.264;2022-07-10T04:40:54;101525.31;;;14.73;100.00
36328;BME280;22354;50.012;8.264;2022-07-10T04:43:19;101518.97;;;14.83;100.00
36328;BME280;22354;50.012;8.264;2022-07-10T04:45:44;101520.91;;;14.90;100.00
36328;BME280;22354;50.012;8.264;2022-07-10T04:48:10;101527.84;;;14.93;100.00
36328;BME280;22354;50.012;8.264;2022-07-10T04:50:35;101528.69;;;14.93;100.00
36328;BME280;22354;50.012;8.264;2022-07-10T04:53:01;101534.91;;;14.94;100.00
36328;BME280;22354;50.012;8.264;2022-07-10T04:55:26;101543.56;;;14.80;100.00
36328;BME280;22354;50.012;8.264;2022-07-10T04:57:52;101539.25;;;14.87;100.00
36328;BME280;22354;50.012;8.264;2022-07-10T05:00:18;101551.06;;;14.86;100.00
36328;BME280;22354;50.012;8.264;2022-07-10T05:02:43;101549.97;;;14.79;100.00
36328;BME280;22354;50.012;8.264;2022-07-10T05:05:08;101547.03;;;14.90;100.00
36328;BME280;22354;50.012;8.264;2022-07-10T05:07:34;101552.50;;;14.80;100.00
36328;BME280;22354;50.012;8.264;2022-07-10T05:09:59;101546.88;;;14.73;100.00
36328;BME280;22354;50.012;8.264;2022-07-10T05:12:25;101543.09;;;14.66;100.00
36328;BME280;22354;50.012;8.264;2022-07-10T05:14:50;101544.31;;;14.54;100.00
36328;BME280;22354;50.012;8.264;2022-07-10T05:17:15;101543.47;;;14.54;100.00
36328;BME280;22354;50.012;8.264;2022-07-10T05:19:41;101545.00;;;14.56;100.00
36328;BME280;22354;50.012;8.264;2022-07-10T05:22:06;101543.31;;;14.55;100.00
36328;BME280;22354;50.012;8.264;2022-07-10T05:24:32;101545.69;;;14.58;100.00
36328;BME280;22354;50.012;8.264;2022-07-10T05:26:57;101544.00;;;14.57;100.00
36328;BME280;22354;50.012;8.264;2022-07-10T05:29:23;101537.47;;;14.78;100.00
36328;BME280;22354;50.012;8.264;2022-07-10T05:31:48;101544.47;;;14.70;100.00
36328;BME280;22354;50.012;8.264;2022-07-10T05:34:13;101544.25;;;14.82;100.00
36328;BME280;22354;50.012;8.264;2022-07-10T05:36:38;101542.16;;;14.93;100.00
36328;BME280;22354;50.012;8.264;2022-07-10T05:39:04;101541.31;;;14.93;100.00
36328;BME280;22354;50.012;8.264;2022-07-10T05:41:29;101541.25;;;14.85;100.00
36328;BME280;22354;50.012;8.264;2022-07-10T05:43:54;101551.09;;;14.94;100.00
36328;BME280;22354;50.012;8.264;2022-07-10T05:46:20;101550.06;;;14.87;100.00
36328;BME280;22354;50.012;8.264;2022-07-10T05:48:45;101551.56;;;15.07;100.00
36328;BME280;22354;50.012;8.264;2022-07-10T05:51:11;101558.06;;;15.14;100.00
36328;BME280;22354;50.012;8.264;2022-07-10T05:53:36;101557.06;;;14.97;100.00
36328;BME280;22354;50.012;8.264;2022-07-10T05:56:02;101555.91;;;15.00;100.00
36328;BME280;22354;50.012;8.264;2022-07-10T05:58:28;101565.06;;;14.89;100.00
36328;BME280;22354;50.012;8.264;2022-07-10T06:00:53;101560.06;;;15.12;100.00
36328;BME280;22354;50.012;8.264;2022-07-10T06:03:18;101559.28;;;15.02;100.00
36328;BME280;22354;50.012;8.264;2022-07-10T06:05:44;101556.75;;;15.00;100.00
36328;BME280;22354;50.012;8.264;2022-07-10T06:08:11;101562.59;;;15.14;100.00
36328;BME280;22354;50.012;8.264;2022-07-10T06:10:36;101557.72;;;15.17;100.00
36328;BME280;22354;50.012;8.264;2022-07-10T06:13:01;101563.81;;;15.19;100.00
36328;BME280;22354;50.012;8.264;2022-07-10T06:15:26;101549.47;;;15.19;100.00
36328;BME280;22354;50.012;8.264;2022-07-10T06:17:52;101561.13;;;15.19;100.00
36328;BME280;22354;50.012;8.264;2022-07-10T06:20:17;101563.56;;;15.30;100.00
36328;BME280;22354;50.012;8.264;2022-07-10T06:22:42;101559.72;;;15.33;100.00
36328;BME280;22354;50.012;8.264;2022-07-10T06:25:08;101551.44;;;15.52;100.00
36328;BME280;22354;50.012;8.264;2022-07-10T06:27:34;101561.00;;;15.90;100.00
36328;BME280;22354;50.012;8.264;2022-07-10T06:30:00;101554.50;;;15.57;100.00
36328;BME280;22354;50.012;8.264;2022-07-10T06:32:26;101559.56;;;15.78;100.00
36328;BME280;22354;50.012;8.264;2022-07-10T06:34:53;101553.44;;;15.50;100.00
36328;BME280;22354;50.012;8.264;2022-07-10T06:37:19;101563.75;;;15.73;100.00
36328;BME280;22354;50.012;8.264;2022-07-10T06:39:44;101552.50;;;15.85;100.00
36328;BME280;22354;50.012;8.264;2022-07-10T06:42:10;101544.19;;;16.13;100.00
36328;BME280;22354;50.012;8.264;2022-07-10T06:44:35;101541.31;;;16.57;100.00
36328;BME280;22354;50.012;8.264;2022-07-10T06:47:01;101542.81;;;16.59;100.00
36328;BME280;22354;50.012;8.264;2022-07-10T06:49:46;101544.94;;;16.39;100.00
36328;BME280;22354;50.012;8.264;2022-07-10T06:52:13;101540.09;;;16.51;100.00
36328;BME280;22354;50.012;8.264;2022-07-10T06:54:39;101541.94;;;16.42;100.00
36328;BME280;22354;50.012;8.264;2022-07-10T06:57:05;101540.00;;;16.69;100.00
36328;BME280;22354;50.012;8.264;2022-07-10T06:59:31;101543.31;;;16.46;100.00
36328;BME280;22354;50.012;8.264;2022-07-10T07:01:56;101541.78;;;16.52;100.00
36328;BME280;22354;50.012;8.264;2022-07-10T07:04:21;101547.41;;;16.59;100.00
36328;BME280;22354;50.012;8.264;2022-07-10T07:06:46;101538.16;;;16.86;100.00
36328;BME280;22354;50.012;8.264;2022-07-10T07:09:12;101541.22;;;16.83;100.00
36328;BME280;22354;50.012;8.264;2022-07-10T07:11:37;101540.94;;;16.51;100.00
36328;BME280;22354;50.012;8.264;2022-07-10T07:14:03;101544.31;;;16.53;100.00
36328;BME280;22354;50.012;8.264;2022-07-10T07:16:28;101539.78;;;16.54;100.00
36328;BME280;22354;50.012;8.264;2022-07-10T07:19:04;101535.63;;;16.76;100.00
36328;BME280;22354;50.012;8.264;2022-07-10T07:21:33;101536.66;;;17.16;100.00
36328;BME280;22354;50.012;8.264;2022-07-10T07:24:17;101537.84;;;17.13;100.00
36328;BME280;22354;50.012;8.264;2022-07-10T07:26:46;101544.09;;;16.97;100.00
36328;BME280;22354;50.012;8.264;2022-07-10T07:29:17;101544.25;;;16.88;100.00
36328;BME280;22354;50.012;8.264;2022-07-10T07:31:43;101550.69;;;16.87;100.00
36328;BME280;22354;50.012;8.264;2022-07-10T07:34:09;101555.09;;;17.04;100.00
36328;BME280;22354;50.012;8.264;2022-07-10T07:36:34;101549.50;;;17.05;100.00
36328;BME280;22354;50.012;8.264;2022-07-10T07:39:00;101560.34;;;17.14;100.00
36328;BME280;22354;50.012;8.264;2022-07-10T07:41:25;101567.31;;;17.08;100.00
36328;BME280;22354;50.012;8.264;2022-07-10T07:43:51;101561.16;;;16.73;100.00
36328;BME280;22354;50.012;8.264;2022-07-10T07:46:17;101562.38;;;16.95;100.00
36328;BME280;22354;50.012;8.264;2022-07-10T07:48:43;101558.66;;;17.04;100.00
36328;BME280;22354;50.012;8.264;2022-07-10T07:51:08;101558.16;;;17.09;100.00
36328;BME280;22354;50.012;8.264;2022-07-10T07:53:33;101558.47;;;16.90;100.00
36328;BME280;22354;50.012;8.264;2022-07-10T07:55:59;101552.41;;;16.96;100.00
36328;BME280;22354;50.012;8.264;2022-07-10T07:58:24;101560.69;;;17.10;100.00
36328;BME280;22354;50.012;8.264;2022-07-10T08:00:50;101567.09;;;17.01;100.00
36328;BME280;22354;50.012;8.264;2022-07-10T08:03:15;101558.50;;;17.22;100.00
36328;BME280;22354;50.012;8.264;2022-07-10T08:05:40;101556.63;;;17.39;100.00
36328;BME280;22354;50.012;8.264;2022-07-10T08:08:06;101561.38;;;17.29;100.00
36328;BME280;22354;50.012;8.264;2022-07-10T08:10:34;101545.94;;;17.54;100.00
36328;BME280;22354;50.012;8.264;2022-07-10T08:12:59;101548.50;;;17.23;100.00
36328;BME280;22354;50.012;8.264;2022-07-10T08:15:25;101546.09;;;17.44;100.00
36328;BME280;22354;50.012;8.264;2022-07-10T08:17:53;101542.22;;;17.30;100.00
36328;BME280;22354;50.012;8.264;2022-07-10T08:20:19;101537.81;;;17.54;100.00
36328;BME280;22354;50.012;8.264;2022-07-10T08:22:44;101542.00;;;18.36;100.00
36328;BME280;22354;50.012;8.264;2022-07-10T08:25:10;101545.13;;;18.48;100.00
36328;BME280;22354;50.012;8.264;2022-07-10T08:27:36;101549.13;;;17.82;100.00
36328;BME280;22354;50.012;8.264;2022-07-10T08:30:02;101543.22;;;17.70;100.00
36328;BME280;22354;50.012;8.264;2022-07-10T08:32:28;101541.66;;;17.67;100.00
36328;BME280;22354;50.012;8.264;2022-07-10T08:34:53;101538.84;;;17.36;100.00
36328;BME280;22354;50.012;8.264;2022-07-10T08:37:19;101537.00;;;17.37;100.00
36328;BME280;22354;50.012;8.264;2022-07-10T08:39:45;101533.59;;;17.59;100.00
36328;BME280;22354;50.012;8.264;2022-07-10T08:42:11;101536.38;;;17.98;100.00
36328;BME280;22354;50.012;8.264;2022-07-10T08:44:37;101535.13;;;18.09;100.00
36328;BME280;22354;50.012;8.264;2022-07-10T08:47:03;101530.63;;;18.33;100.00
36328;BME280;22354;50.012;8.264;2022-07-10T08:49:29;101539.03;;;18.15;100.00
36328;BME280;22354;50.012;8.264;2022-07-10T08:52:03;101536.84;;;18.49;100.00
36328;BME280;22354;50.012;8.264;2022-07-10T08:54:29;101530.13;;;18.68;100.00
36328;BME280;22354;50.012;8.264;2022-07-10T08:57:01;101543.97;;;18.73;100.00
36328;BME280;22354;50.012;8.264;2022-07-10T08:59:27;101532.56;;;18.24;100.00
36328;BME280;22354;50.012;8.264;2022-07-10T09:01:53;101531.97;;;17.97;100.00
36328;BME280;22354;50.012;8.264;2022-07-10T09:04:21;101536.25;;;17.67;100.00
36328;BME280;22354;50.012;8.264;2022-07-10T09:06:46;101540.81;;;17.83;100.00
36328;BME280;22354;50.012;8.264;2022-07-10T09:09:12;101537.31;;;17.75;100.00
36328;BME280;22354;50.012;8.264;2022-07-10T09:11:38;101536.94;;;17.86;100.00
36328;BME280;22354;50.012;8.264;2022-07-10T09:14:08;101528.28;;;17.82;100.00
36328;BME280;22354;50.012;8.264;2022-07-10T09:16:37;101523.94;;;17.49;100.00
36328;BME280;22354;50.012;8.264;2022-07-10T09:21:42;101522.34;;;18.57;100.00
36328;BME280;22354;50.012;8.264;2022-07-10T09:24:08;101521.03;;;18.53;100.00
36328;BME280;22354;50.012;8.264;2022-07-10T09:26:36;101515.53;;;18.69;100.00
36328;BME280;22354;50.012;8.264;2022-07-10T09:29:09;101508.78;;;18.57;100.00
36328;BME280;22354;50.012;8.264;2022-07-10T09:31:55;101504.75;;;18.53;100.00
36328;BME280;22354;50.012;8.264;2022-07-10T09:34:42;101508.50;;;18.75;100.00
36328;BME280;22354;50.012;8.264;2022-07-10T09:37:18;101509.66;;;18.26;100.00
36328;BME280;22354;50.012;8.264;2022-07-10T09:44:52;101500.94;;;18.39;100.00
36328;BME280;22354;50.012;8.264;2022-07-10T09:47:23;101497.44;;;18.22;100.00
36328;BME280;22354;50.012;8.264;2022-07-10T09:49:49;101495.94;;;18.51;100.00
36328;BME280;22354;50.012;8.264;2022-07-10T09:52:16;101502.97;;;18.68;100.00
36328;BME280;22354;50.012;8.264;2022-07-10T09:54:43;101508.50;;;18.52;100.00
36328;BME280;22354;50.012;8.264;2022-07-10T09:57:10;101512.53;;;18.56;100.00
36328;BME280;22354;50.012;8.264;2022-07-10T09:59:38;101503.81;;;18.92;100.00
36328;BME280;22354;50.012;8.264;2022-07-10T10:02:05;101503.03;;;19.06;100.00
36328;BME280;22354;50.012;8.264;2022-07-10T10:04:33;101500.06;;;19.15;100.00
36328;BME280;22354;50.012;8.264;2022-07-10T10:07:00;101494.00;;;19.28;100.00
36328;BME280;22354;50.012;8.264;2022-07-10T10:09:31;101495.50;;;19.31;100.00
36328;BME280;22354;50.012;8.264;2022-07-10T10:12:02;101499.00;;;19.54;100.00
36328;BME280;22354;50.012;8.264;2022-07-10T10:14:31;101493.03;;;19.88;100.00
36328;BME280;22354;50.012;8.264;2022-07-10T10:16:59;101483.69;;;20.27;100.00
36328;BME280;22354;50.012;8.264;2022-07-10T10:19:25;101477.19;;;20.43;100.00
36328;BME280;22354;50.012;8.264;2022-07-10T10:22:12;101471.22;;;20.18;100.00
36328;BME280;22354;50.012;8.264;2022-07-10T10:24:38;101474.25;;;19.79;100.00
36328;BME280;22354;50.012;8.264;2022-07-10T10:27:05;101468.66;;;19.80;100.00
36328;BME280;22354;50.012;8.264;2022-07-10T10:29:32;101473.66;;;19.39;100.00
36328;BME280;22354;50.012;8.264;2022-07-10T10:31:58;101476.75;;;19.36;100.00
36328;BME280;22354;50.012;8.264;2022-07-10T10:34:53;101481.09;;;19.07;100.00
36328;BME280;22354;50.012;8.264;2022-07-10T10:39:56;101474.84;;;19.07;100.00
36328;BME280;22354;50.012;8.264;2022-07-10T10:42:36;101471.53;;;19.49;100.00
36328;BME280;22354;50.012;8.264;2022-07-10T10:47:59;101466.81;;;20.17;100.00
36328;BME280;22354;50.012;8.264;2022-07-10T10:50:51;101459.03;;;20.14;100.00
36328;BME280;22354;50.012;8.264;2022-07-10T10:53:22;101460.47;;;20.10;100.00
36328;BME280;22354;50.012;8.264;2022-07-10T10:58:27;101458.47;;;20.18;100.00
36328;BME280;22354;50.012;8.264;2022-07-10T11:01:24;101456.78;;;20.53;100.00
36328;BME280;22354;50.012;8.264;2022-07-10T11:06:50;101452.69;;;21.69;100.00
36328;BME280;22354;50.012;8.264;2022-07-10T11:09:23;101450.66;;;21.78;100.00
36328;BME280;22354;50.012;8.264;2022-07-10T11:12:02;101450.41;;;22.14;100.00
36328;BME280;22354;50.012;8.264;2022-07-10T11:14:31;101455.88;;;22.14;100.00
36328;BME280;22354;50.012;8.264;2022-07-10T11:16:57;101449.78;;;21.36;100.00
36328;BME280;22354;50.012;8.264;2022-07-10T11:19:24;101447.50;;;21.40;100.00
36328;BME280;22354;50.012;8.264;2022-07-10T11:21:55;101445.72;;;21.26;100.00
36328;BME280;22354;50.012;8.264;2022-07-10T11:24:55;101440.94;;;21.62;100.00
36328;BME280;22354;50.012;8.264;2022-07-10T11:27:58;101435.22;;;21.01;100.00
36328;BME280;22354;50.012;8.264;2022-07-10T11:30:42;101444.63;;;19.98;100.00
36328;BME280;22354;50.012;8.264;2022-07-10T11:33:08;101447.44;;;19.90;100.00
36328;BME280;22354;50.012;8.264;2022-07-10T11:35:33;101449.00;;;20.14;100.00
36328;BME280;22354;50.012;8.264;2022-07-10T11:37:59;101442.94;;;19.97;100.00
36328;BME280;22354;50.012;8.264;2022-07-10T11:40:24;101437.69;;;19.96;100.00
36328;BME280;22354;50.012;8.264;2022-07-10T11:42:54;101440.63;;;20.16;100.00
36328;BME280;22354;50.012;8.264;2022-07-10T11:45:28;101430.09;;;20.64;100.00
36328;BME280;22354;50.012;8.264;2022-07-10T11:47:55;101436.16;;;20.66;100.00
36328;BME280;22354;50.012;8.264;2022-07-10T11:50:21;101434.72;;;20.70;100.00
36328;BME280;22354;50.012;8.264;2022-07-10T11:52:47;101435.66;;;20.77;100.00
36328;BME280;22354;50.012;8.264;2022-07-10T11:55:19;101444.41;;;20.72;100.00
36328;BME280;22354;50.012;8.264;2022-07-10T11:57:45;101431.13;;;20.63;100.00
36328;BME280;22354;50.012;8.264;2022-07-10T12:02:52;101437.22;;;20.28;100.00
36328;BME280;22354;50.012;8.264;2022-07-10T12:05:38;101432.94;;;20.55;100.00
36328;BME280;22354;50.012;8.264;2022-07-10T12:08:04;101433.31;;;20.52;100.00
36328;BME280;22354;50.012;8.264;2022-07-10T12:10:31;101423.72;;;20.56;100.00
36328;BME280;22354;50.012;8.264;2022-07-10T12:13:11;101428.63;;;21.45;100.00
36328;BME280;22354;50.012;8.264;2022-07-10T12:15:42;101426.13;;;21.43;100.00
36328;BME280;22354;50.012;8.264;2022-07-10T12:18:15;101427.94;;;21.08;100.00
36328;BME280;22354;50.012;8.264;2022-07-10T12:20:41;101439.31;;;21.12;100.00
36328;BME280;22354;50.012;8.264;2022-07-10T12:23:11;101422.38;;;20.95;100.00
36328;BME280;22354;50.012;8.264;2022-07-10T12:25:38;101425.09;;;20.95;100.00
36328;BME280;22354;50.012;8.264;2022-07-10T12:28:06;101427.78;;;20.88;100.00
36328;BME280;22354;50.012;8.264;2022-07-10T12:30:42;101429.78;;;21.01;100.00
36328;BME280;22354;50.012;8.264;2022-07-10T12:33:22;101433.16;;;20.82;100.00
36328;BME280;22354;50.012;8.264;2022-07-10T12:35:54;101425.75;;;21.53;100.00
36328;BME280;22354;50.012;8.264;2022-07-10T12:38:29;101425.59;;;21.27;100.00
36328;BME280;22354;50.012;8.264;2022-07-10T12:41:12;101427.50;;;21.05;100.00
36328;BME280;22354;50.012;8.264;2022-07-10T12:43:38;101432.94;;;21.26;100.00
36328;BME280;22354;50.012;8.264;2022-07-10T12:46:08;101423.19;;;21.86;100.00
36328;BME280;22354;50.012;8.264;2022-07-10T12:48:35;101425.41;;;21.69;100.00
36328;BME280;22354;50.012;8.264;2022-07-10T12:51:22;101423.78;;;21.12;100.00
36328;BME280;22354;50.012;8.264;2022-07-10T12:53:50;101421.66;;;21.70;100.00
36328;BME280;22354;50.012;8.264;2022-07-10T12:58:59;101424.09;;;21.52;100.00
36328;BME280;22354;50.012;8.264;2022-07-10T13:01:39;101424.28;;;21.98;100.00
36328;BME280;22354;50.012;8.264;2022-07-10T13:04:05;101428.63;;;22.27;100.00
36328;BME280;22354;50.012;8.264;2022-07-10T13:06:32;101419.41;;;21.87;100.00